Time;durP1;ratioP1;P1;durP2;ratioP2;P2;SDS_P1;SDS_P2;PMS_P1;PMS_P2;Temp;Humidity;BMP_temperature;BMP_pressure;BME280_temperature;BME280_humidity;BME280_pressure;Samples;Min_cycle;Max_cycle;Signal;HPM_P1;HPM_P2
2024/04/05 00:01:54;;;;;;;5.80;3.90;;;;;;;10.63;86.17;100282.24;108796;1253;66331;-65
2024/04/05 00:04:21;;;;;;;5.40;3.70;;;;;;;10.69;86.17;100283.20;108791;1253;73670;-65
2024/04/05 00:06:47;;;;;;;5.50;3.70;;;;;;;10.74;86.19;100286.27;108890;1253;138588;-66
2024/04/05 00:09:14;;;;;;;4.50;3.50;;;;;;;10.77;86.19;100290.70;109219;1253;60242;-68
2024/04/05 00:11:40;;;;;;;4.70;3.50;;;;;;;10.78;86.11;100291.78;108933;1254;139347;-68
2024/04/05 00:14:07;;;;;;;6.70;3.90;;;;;;;10.81;86.06;100291.81;108631;1254;66359;-68
2024/04/05 00:16:34;;;;;;;4.20;3.60;;;;;;;10.83;86.08;100294.31;108476;1254;70945;-69
2024/04/05 00:19:00;;;;;;;3.90;3.50;;;;;;;10.86;86.13;100289.80;108695;1253;138442;-67
2024/04/05 00:21:27;;;;;;;6.00;3.80;;;;;;;10.87;86.06;100295.63;105430;1254;62247;-67
2024/04/05 00:23:54;;;;;;;4.60;3.70;;;;;;;10.90;86.02;100299.35;104987;1259;138818;-67
2024/04/05 00:26:21;;;;;;;7.00;3.40;;;;;;;10.88;85.88;100302.66;104987;1254;67005;-66
2024/04/05 00:28:47;;;;;;;8.00;3.60;;;;;;;10.83;85.77;100303.64;104757;1256;72306;-67
2024/04/05 00:31:14;;;;;;;4.40;3.60;;;;;;;10.82;86.00;100308.87;104423;1258;138701;-66
2024/04/05 00:33:40;;;;;;;7.20;4.10;;;;;;;10.81;86.08;100312.56;104766;1257;62054;-66
2024/04/05 00:36:08;;;;;;;7.60;3.90;;;;;;;10.83;86.15;100314.52;104815;1254;139207;-66
2024/04/05 00:38:35;;;;;;;5.00;3.50;;;;;;;10.84;86.16;100312.60;104970;1257;66740;-66
2024/04/05 00:41:01;;;;;;;4.10;3.30;;;;;;;10.85;86.24;100311.92;108662;1254;70791;-67
2024/04/05 00:43:28;;;;;;;4.80;3.30;;;;;;;10.89;86.36;100318.83;108733;1253;138561;-67
2024/04/05 00:45:55;;;;;;;5.00;3.60;;;;;;;10.91;86.34;100320.79;108774;1253;59884;-66
2024/04/05 00:48:22;;;;;;;4.20;3.60;;;;;;;10.93;86.28;100322.92;108674;1254;139019;-65
2024/04/05 00:50:52;;;;;;;5.50;3.80;;;;;;;10.97;86.31;100329.30;109232;1253;66233;-66
2024/04/05 00:53:24;;;;;;;4.10;3.10;;;;;;;11.00;86.38;100331.29;105505;1257;138656;-65
2024/04/05 00:55:51;;;;;;;3.60;3.10;;;;;;;11.03;86.28;100336.25;109056;1254;59774;-67
2024/04/05 00:58:18;;;;;;;4.60;3.00;;;;;;;11.06;86.27;100335.94;108721;1253;59983;-65
2024/04/05 01:00:45;;;;;;;4.40;2.90;;;;;;;11.08;86.36;100341.97;108654;1253;138934;-65
2024/04/05 01:03:11;;;;;;;5.80;3.10;;;;;;;11.11;86.36;100346.39;108337;1254;66424;-67
2024/04/05 01:05:39;;;;;;;7.30;3.20;;;;;;;11.14;86.39;100347.84;104469;1259;139554;-68
2024/04/05 01:08:07;;;;;;;4.80;3.10;;;;;;;11.16;86.41;100350.51;105020;1254;62019;-68
2024/04/05 01:10:39;;;;;;;3.80;3.40;;;;;;;11.18;86.40;100354.59;109209;1254;61369;-68
2024/04/05 01:13:07;;;;;;;3.60;2.70;;;;;;;11.19;86.46;100359.52;108824;1253;138673;-68
2024/04/05 01:15:34;;;;;;;4.70;3.50;;;;;;;11.21;86.39;100364.13;108630;1253;66349;-68
2024/04/05 01:18:02;;;;;;;5.50;3.30;;;;;;;11.22;86.36;100373.98;108435;1256;138689;-68
2024/04/05 01:20:30;;;;;;;6.20;3.60;;;;;;;11.23;86.37;100387.16;108770;1254;59871;-66
2024/04/05 01:23:01;;;;;;;5.40;3.20;;;;;;;11.25;86.39;100384.21;105477;1253;62130;-67
2024/04/05 01:25:28;;;;;;;3.80;2.90;;;;;;;11.25;86.29;100383.69;108878;1254;138808;-68
2024/04/05 01:27:55;;;;;;;4.10;3.10;;;;;;;11.26;86.34;100389.65;108827;1253;67479;-68
2024/04/05 01:30:23;;;;;;;4.70;2.10;;;;;;;11.26;86.27;100388.25;108526;1254;139038;-67
2024/04/05 01:32:55;;;;;;;2.40;1.80;;;;;;;11.18;86.28;100373.55;108725;1253;60049;-68
2024/04/05 01:35:22;;;;;;;2.80;1.70;;;;;;;11.23;86.14;100388.20;108825;1253;138831;-69
2024/04/05 01:37:48;;;;;;;2.50;1.70;;;;;;;11.22;86.11;100391.70;105071;1254;75780;-67
2024/04/05 01:40:15;;;;;;;3.00;1.40;;;;;;;11.19;85.98;100390.42;104478;1253;64709;-67
2024/04/05 01:42:41;;;;;;;2.10;1.50;;;;;;;11.13;85.80;100391.38;104317;1254;140380;-67
2024/04/05 01:45:08;;;;;;;3.40;1.30;;;;;;;11.04;85.58;100390.70;104685;1255;62271;-67
2024/04/05 01:47:36;;;;;;;1.10;1.10;;;;;;;10.92;85.19;100389.61;104454;1254;138662;-66
2024/04/05 01:50:03;;;;;;;1.70;1.40;;;;;;;10.80;85.25;100395.18;105008;1254;75940;-67
2024/04/05 01:52:30;;;;;;;3.80;1.00;;;;;;;10.71;85.24;100398.01;109133;1254;66025;-67
2024/04/05 01:54:57;;;;;;;2.90;1.10;;;;;;;10.61;85.21;100395.02;106616;1257;138713;-67
2024/04/05 01:57:23;;;;;;;1.80;1.00;;;;;;;10.51;85.20;100397.64;104822;1257;62080;-68
2024/04/05 01:59:51;;;;;;;2.10;1.00;;;;;;;10.46;85.47;100398.23;104652;1258;139222;-65
2024/04/05 02:02:18;;;;;;;1.10;1.00;;;;;;;10.45;85.68;100404.18;104786;1253;77329;-66
2024/04/05 02:04:44;;;;;;;1.80;1.30;;;;;;;10.43;85.75;100402.56;104158;1257;66898;-67
2024/04/05 02:07:11;;;;;;;1.30;1.10;;;;;;;10.39;85.82;100402.81;104598;1257;139660;-66
2024/04/05 02:09:37;;;;;;;2.20;1.40;;;;;;;10.32;85.84;100408.98;105078;1254;62169;-67
2024/04/05 02:12:06;;;;;;;4.00;1.10;;;;;;;10.26;85.95;100406.57;104602;1253;138716;-67
2024/04/05 02:14:33;;;;;;;2.90;1.10;;;;;;;10.26;86.26;100408.15;108831;1253;75500;-67
2024/04/05 02:17:00;;;;;;;1.60;1.00;;;;;;;10.26;86.41;100408.14;108652;1254;64991;-67
2024/04/05 02:19:27;;;;;;;1.50;1.40;;;;;;;10.24;86.44;100411.96;108405;1254;140874;-68
2024/04/05 02:21:53;;;;;;;1.30;1.20;;;;;;;10.23;86.54;100418.08;109016;1254;59999;-68
2024/04/05 02:24:20;;;;;;;1.50;1.40;;;;;;;10.23;86.65;100420.00;108822;1253;138787;-67
2024/04/05 02:26:47;;;;;;;2.70;1.40;;;;;;;10.22;86.63;100420.87;107149;1253;74698;-66
2024/04/05 02:29:13;;;;;;;4.00;1.30;;;;;;;10.22;86.67;100423.84;104823;1254;65114;-66
2024/04/05 02:31:40;;;;;;;2.30;1.40;;;;;;;10.21;86.65;100429.27;104471;1257;138426;-67
2024/04/05 02:34:07;;;;;;;2.90;1.50;;;;;;;10.22;86.81;100428.75;109080;1253;59936;-68
2024/04/05 02:36:34;;;;;;;3.20;1.70;;;;;;;10.23;86.83;100430.70;109058;1253;139058;-68
2024/04/05 02:39:00;;;;;;;4.20;1.50;;;;;;;10.22;86.75;100435.06;108907;1254;76338;-68
2024/04/05 02:41:28;;;;;;;2.30;1.70;;;;;;;10.21;86.86;100433.98;107527;1253;139321;-67
2024/04/05 02:43:55;;;;;;;4.20;2.10;;;;;;;10.23;86.94;100438.77;104681;1256;73736;-68
2024/04/05 02:46:22;;;;;;;3.90;2.10;;;;;;;10.26;87.12;100434.29;104813;1256;61949;-68
2024/04/05 02:48:48;;;;;;;3.50;2.00;;;;;;;10.28;87.06;100438.00;104467;1253;139317;-68
2024/04/05 02:51:15;;;;;;;5.10;2.40;;;;;;;10.25;86.77;100441.44;104821;1255;74816;-67
2024/04/05 02:53:41;;;;;;;2.70;1.90;;;;;;;10.21;86.89;100446.27;104961;1254;138720;-69
2024/04/05 02:56:10;;;;;;;3.10;1.90;;;;;;;10.21;87.03;100445.91;105100;1254;62135;-69
2024/04/05 02:58:36;;;;;;;3.40;1.90;;;;;;;10.19;87.05;100449.91;108876;1253;60109;-68
2024/04/05 03:01:03;;;;;;;4.40;1.80;;;;;;;10.13;86.91;100448.73;108585;1253;139113;-68
2024/04/05 03:03:30;;;;;;;3.70;1.60;;;;;;;10.05;86.66;100451.36;108853;1253;75460;-68
2024/04/05 03:05:57;;;;;;;2.90;1.50;;;;;;;9.96;86.68;100457.83;104807;1254;139282;-66
2024/04/05 03:08:23;;;;;;;2.70;1.60;;;;;;;9.89;86.71;100457.32;105063;1257;73363;-66
2024/04/05 03:10:50;;;;;;;4.10;1.80;;;;;;;9.85;86.91;100461.25;104923;1254;62363;-68
2024/04/05 03:13:17;;;;;;;4.80;1.80;;;;;;;9.85;87.20;100468.45;104702;1257;138751;-68
2024/04/05 03:15:43;;;;;;;2.70;1.70;;;;;;;9.88;87.40;100468.49;104763;1254;75505;-67
2024/04/05 03:18:10;;;;;;;6.60;1.90;;;;;;;9.91;87.62;100470.48;104823;1254;138345;-65
2024/04/05 03:20:36;;;;;;;5.30;1.70;;;;;;;9.95;87.70;100472.70;105191;1254;72460;-65
2024/04/05 03:23:05;;;;;;;3.80;2.00;;;;;;;10.00;87.95;100478.93;105168;1254;62089;-66
2024/04/05 03:25:31;;;;;;;3.40;1.70;;;;;;;10.07;88.06;100482.61;109093;1253;140082;-67
2024/04/05 03:27:58;;;;;;;4.80;1.80;;;;;;;10.15;88.00;100487.86;108805;1254;76391;-67
2024/04/05 03:30:24;;;;;;;2.90;1.90;;;;;;;10.21;88.03;100491.35;108681;1256;139407;-67
2024/04/05 03:32:51;;;;;;;5.80;2.40;;;;;;;10.28;87.98;100493.42;108677;1259;73140;-67
2024/04/05 03:35:19;;;;;;;3.00;2.00;;;;;;;10.35;87.83;100499.40;108805;1253;139237;-67
2024/04/05 03:37:48;;;;;;;5.20;2.10;;;;;;;10.43;87.77;100505.34;109139;1253;60084;-68
2024/04/05 03:40:15;;;;;;;3.60;1.90;;;;;;;10.49;87.66;100512.52;108865;1253;73891;-68
2024/04/05 03:42:41;;;;;;;5.40;2.50;;;;;;;10.55;87.55;100522.98;108747;1253;139401;-67
2024/04/05 03:45:08;;;;;;;5.00;2.20;;;;;;;10.61;87.53;100527.31;108754;1253;59797;-67
2024/04/05 03:47:35;;;;;;;3.90;2.00;;;;;;;10.67;87.41;100534.81;107551;1253;139716;-67
2024/04/05 03:50:01;;;;;;;3.50;1.80;;;;;;;10.71;87.22;100538.23;104943;1254;62118;-66
2024/04/05 03:52:28;;;;;;;3.30;1.90;;;;;;;10.74;87.24;100542.87;104873;1254;76887;-67
2024/04/05 03:54:54;;;;;;;4.40;1.40;;;;;;;10.76;87.19;100549.05;104844;1257;138817;-67
2024/04/05 03:57:21;;;;;;;2.20;1.40;;;;;;;10.74;86.97;100549.51;105006;1253;62028;-67
2024/04/05 03:59:48;;;;;;;5.20;1.10;;;;;;;10.65;86.37;100547.06;104808;1256;138974;-68
2024/04/05 04:02:15;;;;;;;1.90;1.00;;;;;;;10.56;86.12;100548.63;104850;1258;62039;-66
2024/04/05 04:04:41;;;;;;;2.20;1.40;;;;;;;10.49;85.96;100550.40;104707;1254;74192;-65
2024/04/05 04:07:08;;;;;;;3.90;1.10;;;;;;;10.47;85.94;100553.70;104692;1254;138746;-66
2024/04/05 04:09:34;;;;;;;2.40;1.30;;;;;;;10.44;85.68;100555.72;104906;1257;74495;-66
2024/04/05 04:12:01;;;;;;;2.80;1.30;;;;;;;10.41;85.62;100553.02;104851;1254;138703;-66
2024/04/05 04:14:29;;;;;;;3.70;1.60;;;;;;;10.38;85.44;100558.91;106789;1253;61936;-68
2024/04/05 04:16:55;;;;;;;2.50;1.50;;;;;;;10.31;85.18;100560.88;104971;1254;76432;-67
2024/04/05 04:19:22;;;;;;;4.30;1.90;;;;;;;10.21;84.96;100561.66;105129;1254;138884;-66
2024/04/05 04:21:49;;;;;;;2.00;1.30;;;;;;;10.09;84.73;100570.50;105010;1259;71969;-66
2024/04/05 04:24:18;;;;;;;3.30;1.40;;;;;;;9.95;84.64;100574.55;109036;1254;139076;-67
2024/04/05 04:26:45;;;;;;;2.10;1.40;;;;;;;9.84;84.68;100582.67;109154;1253;60726;-66
2024/04/05 04:29:12;;;;;;;2.70;1.40;;;;;;;9.75;84.73;100595.77;108916;1253;75553;-65
2024/04/05 04:31:39;;;;;;;2.60;1.50;;;;;;;9.67;84.92;100604.66;109092;1253;138748;-66
2024/04/05 04:34:06;;;;;;;3.30;1.60;;;;;;;9.62;84.84;100603.48;109131;1253;70957;-66
2024/04/05 04:36:32;;;;;;;4.40;1.80;;;;;;;9.58;84.98;100611.63;109016;1255;138895;-66
2024/04/05 04:38:59;;;;;;;2.60;1.50;;;;;;;9.57;85.05;100617.88;109210;1253;59983;-67
2024/04/05 04:41:26;;;;;;;3.60;1.60;;;;;;;9.55;85.08;100618.00;108761;1253;139362;-66
2024/04/05 04:43:53;;;;;;;5.80;1.80;;;;;;;9.60;85.29;100619.90;108847;1253;65223;-66
2024/04/05 04:46:19;;;;;;;3.60;1.80;;;;;;;10.48;88.47;100614.73;108606;1253;214147;-67
2024/04/05 04:48:46;;;;;;;3.40;1.80;;;;;;;12.08;89.74;100614.73;108674;1253;139409;-67
2024/04/05 04:51:12;;;;;;;4.70;1.90;;;;;;;13.63;88.48;100612.83;109006;1253;61252;-66
2024/04/05 04:53:39;;;;;;;2.40;1.30;;;;;;;14.99;86.63;100608.58;105939;1254;139216;-67
2024/04/05 04:56:06;;;;;;;4.70;1.60;;;;;;;16.31;85.05;100611.16;104949;1253;66553;-67
2024/04/05 04:58:34;;;;;;;3.40;1.60;;;;;;;17.50;82.82;100608.53;104940;1257;74121;-67
2024/04/05 05:01:01;;;;;;;2.70;1.40;;;;;;;17.95;79.49;100605.24;105410;1258;138627;-68
2024/04/05 05:03:28;;;;;;;3.10;1.70;;;;;;;18.00;77.63;100608.59;109134;1254;60127;-67
2024/04/05 05:05:55;;;;;;;2.60;1.30;;;;;;;17.62;75.48;100611.48;109106;1253;138207;-67
2024/04/05 05:08:23;;;;;;;3.40;1.90;;;;;;;17.19;74.26;100619.33;109249;1253;67627;-66
2024/04/05 05:10:49;;;;;;;2.40;1.50;;;;;;;16.68;73.48;100626.92;109261;1253;71917;-68
2024/04/05 05:13:16;;;;;;;3.10;1.50;;;;;;;16.18;72.68;100623.41;108923;1253;138918;-69
2024/04/05 05:15:44;;;;;;;4.40;1.70;;;;;;;15.70;72.62;100625.82;108963;1254;59823;-70
2024/04/05 05:18:11;;;;;;;3.20;1.70;;;;;;;15.35;72.83;100634.39;108975;1254;138481;-69
2024/04/05 05:20:45;;;;;;;3.70;1.70;;;;;;;15.09;72.86;100635.52;109222;1256;66861;-70
2024/04/05 05:23:12;;;;;;;6.20;2.10;;;;;;;14.84;72.97;100644.05;109191;1253;71505;-70
2024/04/05 05:25:40;;;;;;;4.80;1.80;;;;;;;14.70;73.24;100645.38;109083;1254;138088;-70
2024/04/05 05:28:06;;;;;;;3.40;1.70;;;;;;;14.63;73.44;100646.04;109127;1253;59892;-69
2024/04/05 05:30:33;;;;;;;4.30;2.00;;;;;;;14.54;73.42;100647.35;108276;1253;138534;-75
2024/04/05 05:33:00;;;;;;;2.80;1.50;;;;;;;14.47;73.39;100650.48;106112;1254;65236;-71
2024/04/05 05:35:26;;;;;;;3.80;1.70;;;;;;;14.38;73.29;100651.29;106326;1257;138253;-71
2024/04/05 05:37:53;;;;;;;3.80;1.40;;;;;;;14.28;73.47;100657.21;105039;1254;62169;-67
2024/04/05 05:40:19;;;;;;;2.70;1.60;;;;;;;14.19;73.44;100657.84;105071;1255;62049;-68
2024/04/05 05:42:46;;;;;;;4.20;1.70;;;;;;;14.07;73.36;100659.50;105022;1259;138722;-70
2024/04/05 05:45:14;;;;;;;4.10;1.80;;;;;;;13.93;73.41;100661.84;109070;1254;65376;-69
2024/04/05 05:47:40;;;;;;;4.40;1.60;;;;;;;13.77;73.21;100662.58;105302;1258;139705;-62
2024/04/05 05:50:09;;;;;;;2.30;1.30;;;;;;;13.71;73.58;100671.84;105119;1253;60800;-69
2024/04/05 05:52:36;;;;;;;3.20;1.30;;;;;;;13.69;73.91;100672.34;105030;1258;62017;-68
2024/04/05 05:55:03;;;;;;;5.30;1.70;;;;;;;13.67;74.08;100670.21;104863;1255;138904;-70
2024/04/05 05:57:29;;;;;;;3.20;1.70;;;;;;;13.63;74.02;100668.77;105010;1257;65584;-69
2024/04/05 05:59:56;;;;;;;3.70;1.50;;;;;;;13.56;73.98;100675.39;105029;1259;138333;-69
2024/04/05 06:02:22;;;;;;;2.70;1.40;;;;;;;13.52;74.09;100673.21;105140;1254;62154;-70
2024/04/05 06:04:49;;;;;;;4.20;1.50;;;;;;;13.56;74.31;100684.02;105099;1258;62045;-71
2024/04/05 06:07:15;;;;;;;3.00;1.50;;;;;;;13.68;74.35;100680.27;104920;1255;138414;-70
2024/04/05 06:09:49;;;;;;;7.10;1.70;;;;;;;13.83;74.21;100684.31;105092;1254;66709;-70
2024/04/05 06:12:16;;;;;;;4.40;1.40;;;;;;;14.01;74.24;100681.84;109093;1254;137925;-70
2024/04/05 06:14:43;;;;;;;3.50;1.30;;;;;;;14.19;74.07;100692.97;109124;1257;60068;-70
2024/04/05 06:17:09;;;;;;;4.60;1.90;;;;;;;14.33;73.67;100697.50;105259;1254;62163;-70
2024/04/05 06:19:38;;;;;;;3.80;1.40;;;;;;;14.45;73.37;100707.31;104821;1254;138497;-68
2024/04/05 06:22:05;;;;;;;4.30;1.50;;;;;;;14.43;72.87;100706.23;107715;1256;66112;-67
2024/04/05 06:24:31;;;;;;;4.30;1.70;;;;;;;14.32;72.30;100700.30;104804;1254;138289;-68
2024/04/05 06:26:58;;;;;;;2.90;1.40;;;;;;;14.36;72.68;100703.88;104873;1257;61391;-67
2024/04/05 06:29:25;;;;;;;3.20;1.70;;;;;;;14.46;72.50;100708.73;105040;1259;138156;-67
2024/04/05 06:31:51;;;;;;;4.30;1.50;;;;;;;14.47;72.34;100710.33;105054;1258;76408;-67
2024/04/05 06:34:18;;;;;;;4.30;1.60;;;;;;;14.45;72.13;100717.39;104985;1254;66630;-67
2024/04/05 06:36:46;;;;;;;2.90;1.50;;;;;;;14.48;72.11;100719.70;104815;1254;138009;-68
2024/04/05 06:39:12;;;;;;;4.30;1.60;;;;;;;14.40;71.46;100722.64;106056;1254;62055;-68
2024/04/05 06:41:39;;;;;;;4.40;1.60;;;;;;;14.32;71.39;100718.48;105078;1254;138838;-68
2024/04/05 06:44:05;;;;;;;3.20;1.30;;;;;;;14.31;71.68;100720.25;105201;1254;76554;-69
2024/04/05 06:46:32;;;;;;;6.10;1.50;;;;;;;14.43;71.88;100726.72;105094;1258;66871;-68
2024/04/05 06:48:59;;;;;;;2.00;1.50;;;;;;;14.63;71.82;100728.67;105006;1258;138351;-68
2024/04/05 06:51:25;;;;;;;2.80;1.40;;;;;;;14.69;71.22;100735.80;105117;1254;62124;-67
2024/04/05 06:53:52;;;;;;;6.40;1.70;;;;;;;14.68;70.82;100731.39;105044;1254;138196;-67
2024/04/05 06:56:18;;;;;;;4.30;1.60;;;;;;;14.70;70.64;100731.03;105024;1254;76082;-69
2024/04/05 06:58:45;;;;;;;2.60;1.30;;;;;;;14.65;70.40;100742.30;105184;1257;64853;-68
2024/04/05 07:01:11;;;;;;;3.80;1.30;;;;;;;14.68;70.61;100745.33;105008;1254;138011;-68
2024/04/05 07:03:38;;;;;;;3.80;1.50;;;;;;;14.79;70.66;100746.47;105229;1254;62089;-68
2024/04/05 07:06:06;;;;;;;4.70;1.50;;;;;;;14.96;70.65;100741.46;106235;1253;138221;-68
2024/04/05 07:08:32;;;;;;;1.80;1.20;;;;;;;15.06;70.22;100747.20;106801;1254;75920;-68
2024/04/05 07:10:59;;;;;;;2.40;1.70;;;;;;;15.10;69.96;100748.45;105210;1254;65816;-68
2024/04/05 07:13:25;;;;;;;2.30;1.50;;;;;;;15.12;69.91;100755.90;104907;1259;138170;-68
2024/04/05 07:15:52;;;;;;;1.90;1.00;;;;;;;15.22;69.99;100758.25;105135;1254;62039;-68
2024/04/05 07:18:22;;;;;;;3.60;1.50;;;;;;;15.40;69.79;100763.13;104837;1259;137911;-68
2024/04/05 07:20:48;;;;;;;3.40;1.50;;;;;;;15.55;69.55;100763.73;109280;1253;75880;-67
2024/04/05 07:23:15;;;;;;;3.10;1.60;;;;;;;15.65;69.17;100762.36;109316;1253;65409;-68
2024/04/05 07:25:41;;;;;;;3.30;1.90;;;;;;;15.61;68.93;100768.90;109155;1254;137951;-68
2024/04/05 07:28:08;;;;;;;5.60;2.30;;;;;;;15.62;68.72;100765.02;109270;1254;59869;-68
2024/04/05 07:30:35;;;;;;;4.10;2.00;;;;;;;15.73;68.71;100769.85;109157;1253;139305;-67
2024/04/05 07:33:01;;;;;;;3.30;1.50;;;;;;;15.91;68.88;100769.58;106899;1254;75348;-67
2024/04/05 07:35:29;;;;;;;3.10;1.90;;;;;;;16.13;68.79;100776.54;104858;1259;138653;-66
2024/04/05 07:37:56;;;;;;;3.10;1.90;;;;;;;16.35;68.59;100782.79;109029;1253;73129;-67
2024/04/05 07:40:24;;;;;;;2.60;1.60;;;;;;;16.54;68.38;100783.35;109110;1254;59921;-66
2024/04/05 07:42:51;;;;;;;2.60;1.70;;;;;;;16.65;67.72;100791.15;108395;1258;137983;-66
2024/04/05 07:45:19;;;;;;;2.40;1.80;;;;;;;16.66;67.39;100796.83;105120;1256;76448;-67
2024/04/05 07:47:49;;;;;;;2.30;1.70;;;;;;;16.67;67.11;100798.77;107482;1256;138904;-65
2024/04/05 07:50:16;;;;;;;4.30;1.80;;;;;;;16.68;67.02;100802.85;105009;1252;72484;-66
2024/04/05 07:52:43;;;;;;;4.80;3.20;;;;;;;16.65;66.66;100799.13;104907;1254;62048;-66
2024/04/05 07:55:10;;;;;;;10.10;2.60;;;;;;;16.58;66.47;100799.83;104998;1259;137910;-66
2024/04/05 07:57:37;;;;;;;5.90;3.10;;;;;;;16.65;66.58;100803.20;104953;1259;75901;-66
2024/04/05 08:00:14;;;;;;;3.30;2.70;;;;;;;16.68;66.36;100803.55;105017;1254;138223;-66
2024/04/05 08:02:50;;;;;;;4.50;2.50;;;;;;;16.67;66.21;100801.08;109337;1254;72713;-66
2024/04/05 08:05:16;;;;;;;5.40;3.30;;;;;;;16.63;65.62;100803.02;109109;1254;60023;-67
2024/04/05 08:07:43;;;;;;;7.90;3.10;;;;;;;16.62;65.85;100804.27;109191;1253;137567;-67
2024/04/05 08:10:10;;;;;;;7.00;3.00;;;;;;;16.78;66.05;100809.61;109111;1254;75557;-67
2024/04/05 08:12:37;;;;;;;3.10;2.60;;;;;;;16.90;65.90;100810.52;109124;1254;137686;-67
2024/04/05 08:15:04;;;;;;;7.80;3.10;;;;;;;16.92;65.37;100815.83;109297;1254;72756;-67
2024/04/05 08:17:30;;;;;;;4.30;3.50;;;;;;;16.89;65.18;100814.77;109029;1253;138418;-67
2024/04/05 08:19:57;;;;;;;6.30;2.80;;;;;;;16.88;64.77;100817.96;109287;1254;60005;-68
2024/04/05 08:22:23;;;;;;;5.30;2.90;;;;;;;16.82;64.71;100818.30;109282;1253;75456;-67
2024/04/05 08:24:50;;;;;;;4.60;3.10;;;;;;;16.80;64.57;100814.54;109206;1253;138109;-67
2024/04/05 08:27:17;;;;;;;5.70;2.70;;;;;;;16.85;64.61;100821.85;109279;1254;73676;-67
2024/04/05 08:29:43;;;;;;;7.10;5.50;;;;;;;16.84;64.43;100818.48;108991;1259;138075;-67
2024/04/05 08:32:10;;;;;;;4.70;3.10;;;;;;;16.80;64.18;100821.28;109330;1254;60597;-66
2024/04/05 08:34:36;;;;;;;5.00;2.70;;;;;;;16.71;64.09;100825.00;109300;1253;75607;-67
2024/04/05 08:37:04;;;;;;;5.00;3.20;;;;;;;16.73;64.31;100829.97;109192;1253;137942;-66
2024/04/05 08:39:30;;;;;;;9.50;2.60;;;;;;;16.88;64.58;100828.77;105601;1259;70112;-66
2024/04/05 08:42:10;;;;;;;5.60;2.30;;;;;;;17.12;64.66;100833.55;104966;1259;139265;-67
2024/04/05 08:44:37;;;;;;;4.90;2.30;;;;;;;17.32;64.23;100833.88;105113;1254;62112;-67
2024/04/05 08:47:08;;;;;;;6.20;2.10;;;;;;;17.49;64.05;100831.55;109309;1254;73642;-66
2024/04/05 08:49:35;;;;;;;4.90;2.00;;;;;;;17.66;64.07;100827.23;108977;1254;137953;-66
2024/04/05 08:52:02;;;;;;;5.10;1.90;;;;;;;17.80;63.51;100826.49;109276;1254;73755;-66
2024/04/05 08:54:29;;;;;;;5.70;2.20;;;;;;;17.84;63.16;100824.18;109000;1254;138449;-66
2024/04/05 08:56:56;;;;;;;6.60;2.20;;;;;;;17.89;63.05;100827.91;109322;1253;60414;-66
2024/04/05 08:59:29;;;;;;;7.20;2.10;;;;;;;17.80;62.74;100825.08;109116;1255;138503;-67
2024/04/05 09:02:00;;;;;;;5.60;1.90;;;;;;;17.76;62.60;100819.05;109316;1253;65748;-66
2024/04/05 09:04:28;;;;;;;2.80;1.90;;;;;;;17.87;62.66;100818.15;109018;1254;73163;-66
2024/04/05 09:06:55;;;;;;;5.00;2.30;;;;;;;17.97;62.31;100820.25;108988;1253;138430;-66
2024/04/05 09:09:29;;;;;;;4.60;2.20;;;;;;;18.05;62.22;100826.60;109316;1253;60173;-67
2024/04/05 09:12:02;;;;;;;;;;;;;;;18.02;61.82;100835.15;109264;1254;138307;-67
2024/04/05 09:14:29;;;;;;;7.60;2.80;;;;;;;18.06;61.71;100832.64;107802;1254;65043;-68
2024/04/05 09:16:57;;;;;;;5.10;2.00;;;;;;;17.90;61.29;100838.73;104903;1257;73191;-68
2024/04/05 09:19:24;;;;;;;3.70;2.00;;;;;;;17.76;61.40;100842.66;105077;1254;138295;-67
2024/04/05 09:21:50;;;;;;;6.30;2.10;;;;;;;17.62;61.44;100846.79;105166;1259;61999;-67
2024/04/05 09:24:17;;;;;;;5.30;1.90;;;;;;;17.39;61.13;100847.00;104875;1259;138102;-67
2024/04/05 09:26:45;;;;;;;3.80;2.00;;;;;;;17.10;61.01;100851.10;105229;1259;66871;-68
2024/04/05 09:29:14;;;;;;;4.80;1.90;;;;;;;16.92;61.37;100851.29;107522;1255;73355;-68
2024/04/05 09:31:45;;;;;;;6.20;2.00;;;;;;;16.92;61.74;100848.63;105005;1259;137686;-68
2024/04/05 09:34:18;;;;;;;6.10;2.10;;;;;;;17.10;62.07;100849.15;106905;1257;60742;-68
2024/04/05 09:36:45;;;;;;;6.30;2.60;;;;;;;17.36;61.92;100853.03;105026;1254;138379;-67
2024/04/05 09:39:16;;;;;;;4.10;1.90;;;;;;;17.54;61.60;100849.98;105191;1254;66158;-67
2024/04/05 09:41:44;;;;;;;6.60;2.20;;;;;;;17.74;61.40;100855.27;105949;1254;138555;-67
2024/04/05 09:44:11;;;;;;;3.80;1.80;;;;;;;18.07;61.30;100851.45;105152;1254;62104;-67
2024/04/05 09:46:37;;;;;;;4.10;2.30;;;;;;;18.40;61.03;100847.92;104958;1260;62174;-67
2024/04/05 09:49:05;;;;;;;5.90;1.80;;;;;;;18.61;60.55;100845.13;105007;1259;138386;-68
2024/04/05 09:51:45;;;;;;;5.00;2.10;;;;;;;18.79;60.22;100843.24;109216;1254;66845;-68
2024/04/05 09:54:13;;;;;;;3.80;1.60;;;;;;;18.88;59.31;100834.64;106633;1259;138146;-68
2024/04/05 09:56:40;;;;;;;4.00;1.90;;;;;;;18.76;58.48;100835.61;105241;1260;61328;-67
2024/04/05 09:59:20;;;;;;;7.40;2.60;;;;;;;18.63;58.32;100842.27;105139;1259;62073;-69
2024/04/05 10:01:46;;;;;;;6.70;2.10;;;;;;;18.53;58.17;100844.65;105053;1254;137889;-69
2024/04/05 10:04:13;;;;;;;5.50;2.10;;;;;;;18.49;58.40;100848.94;105170;1254;66201;-67
2024/04/05 10:06:42;;;;;;;5.30;1.80;;;;;;;18.50;58.28;100845.02;104927;1260;137862;-67
2024/04/05 10:09:21;;;;;;;3.50;2.00;;;;;;;18.38;57.67;100846.16;105845;1259;62149;-67
2024/04/05 10:11:52;;;;;;;4.00;2.00;;;;;;;18.20;57.39;100850.69;109183;1253;138620;-68
2024/04/05 10:14:25;;;;;;;4.10;1.90;;;;;;;18.10;57.35;100852.70;109314;1254;76389;-68
2024/04/05 10:17:09;;;;;;;4.50;1.60;;;;;;;17.96;57.08;100854.52;109297;1253;66404;-69
2024/04/05 10:19:37;;;;;;;3.70;1.70;;;;;;;17.87;57.09;100857.21;109147;1254;138027;-68
2024/04/05 10:22:05;;;;;;;6.00;1.80;;;;;;;17.88;57.01;100854.19;107838;1254;60516;-68
2024/04/05 10:24:32;;;;;;;4.60;1.60;;;;;;;17.99;57.00;100861.08;105033;1259;138911;-67
2024/04/05 10:26:59;;;;;;;5.30;1.80;;;;;;;18.03;56.80;100863.90;105191;1259;75804;-68
2024/04/05 10:29:26;;;;;;;15.90;3.30;;;;;;;17.98;56.51;100867.83;105035;1255;137931;-67
2024/04/05 10:32:03;;;;;;;4.90;1.80;;;;;;;17.85;56.41;100867.15;105109;1254;71917;-67
2024/04/05 10:34:33;;;;;;;4.60;1.80;;;;;;;17.74;56.58;100872.84;109265;1253;59977;-68
2024/04/05 10:37:04;;;;;;;3.80;1.70;;;;;;;17.75;56.55;100873.55;109207;1254;138353;-68
2024/04/05 10:39:30;;;;;;;5.70;2.00;;;;;;;17.75;56.35;100878.34;109064;1254;75535;-67
2024/04/05 10:41:57;;;;;;;5.20;3.00;;;;;;;17.74;56.06;100876.92;108344;1257;137856;-68
2024/04/05 10:44:24;;;;;;;23.70;4.20;;;;;;;17.82;55.94;100877.98;105181;1258;73240;-67
2024/04/05 10:46:50;;;;;;;3.90;1.50;;;;;;;17.93;55.69;100877.80;105174;1254;62019;-67
2024/04/05 10:49:19;;;;;;;8.70;2.00;;;;;;;18.07;55.79;100881.65;104833;1260;138068;-67
2024/04/05 10:51:46;;;;;;;5.70;2.90;;;;;;;18.22;55.28;100880.71;109341;1254;74272;-67
2024/04/05 10:54:16;;;;;;;3.70;1.80;;;;;;;18.29;55.01;100886.52;107420;1259;137964;-68
2024/04/05 10:56:43;;;;;;;6.40;2.50;;;;;;;18.35;54.48;100887.74;109287;1253;73574;-68
2024/04/05 10:59:11;;;;;;;14.20;3.10;;;;;;;18.37;54.33;100889.33;105563;1255;62222;-67
2024/04/05 11:01:38;;;;;;;4.70;1.90;;;;;;;18.37;54.27;100893.23;109145;1257;138120;-68
2024/04/05 11:04:06;;;;;;;3.00;1.50;;;;;;;18.35;54.24;100898.58;107526;1254;75796;-68
2024/04/05 11:06:33;;;;;;;3.50;1.80;;;;;;;18.35;54.17;100901.24;109197;1254;137709;-67
2024/04/05 11:08:59;;;;;;;3.70;1.80;;;;;;;18.27;53.88;100904.30;109283;1256;70938;-67
2024/04/05 11:11:26;;;;;;;3.80;1.70;;;;;;;18.16;53.83;100904.52;105701;1258;138246;-67
2024/04/05 11:14:06;;;;;;;6.60;1.90;;;;;;;18.03;53.80;100896.92;105093;1260;61715;-69
2024/04/05 11:16:36;;;;;;;5.50;2.60;;;;;;;17.95;54.06;100901.23;109088;1254;76735;-67